Time;durP1;ratioP1;P1;durP2;ratioP2;P2;SDS_P1;SDS_P2;PMS_P1;PMS_P2;Temp;Humidity;BMP_temperature;BMP_pressure;BME280_temperature;BME280_humidity;BME280_pressure;Samples;Min_cycle;Max_cycle;Signal;HPM_P1;HPM_P2
2021/11/03 00:01:11;;;;;;;2.20;1.45;;;;;;;6.32;nan;99168.88;5028933;28;20033;-76
2021/11/03 00:03:37;;;;;;;1.50;1.20;;;;;;;6.32;nan;99166.25;5031449;28;20053;-76
2021/11/03 00:06:02;;;;;;;1.67;1.23;;;;;;;6.34;nan;99161.66;5030768;28;20120;-76
2021/11/03 00:08:29;;;;;;;1.85;1.30;;;;;;;6.35;nan;99151.00;5031056;28;20042;-76
2021/11/03 00:10:55;;;;;;;2.33;1.40;;;;;;;6.40;nan;99142.66;5030753;28;20409;-76
2021/11/03 00:13:23;;;;;;;2.95;1.80;;;;;;;6.50;nan;99142.50;5031362;28;20459;-76
2021/11/03 00:15:49;;;;;;;2.25;1.65;;;;;;;6.49;nan;99154.81;5029618;28;20045;-76
2021/11/03 00:18:15;;;;;;;2.45;1.58;;;;;;;6.50;nan;99148.59;5031481;28;20063;-75
2021/11/03 00:20:41;;;;;;;2.40;1.75;;;;;;;6.56;nan;99144.50;5031440;28;20095;-76
2021/11/03 00:23:07;;;;;;;2.05;1.70;;;;;;;6.56;nan;99147.97;5031673;28;20033;-76
2021/11/03 00:25:40;;;;;;;3.38;2.10;;;;;;;6.57;nan;99146.97;5032404;28;20124;-76
2021/11/03 00:28:09;;;;;;;3.78;2.00;;;;;;;6.53;nan;99136.94;5032997;28;20037;-76
2021/11/03 00:30:35;;;;;;;3.47;2.28;;;;;;;6.58;nan;99134.69;5033300;28;20029;-76
2021/11/03 00:33:02;;;;;;;2.80;2.17;;;;;;;6.63;nan;99128.94;5032953;28;20033;-75
2021/11/03 00:35:27;;;;;;;3.45;2.30;;;;;;;6.65;nan;99109.41;5030380;28;20112;-75
2021/11/03 00:37:52;;;;;;;3.88;2.40;;;;;;;6.68;nan;99111.69;5031340;28;20121;-75
2021/11/03 00:40:18;;;;;;;4.45;2.83;;;;;;;6.72;nan;99093.81;5030934;28;20037;-75
2021/11/03 00:42:44;;;;;;;5.75;2.90;;;;;;;6.67;nan;99101.34;5030683;28;20063;-75
2021/11/03 00:45:09;;;;;;;5.65;3.05;;;;;;;6.72;nan;99099.91;5030457;28;20034;-75
2021/11/03 00:47:35;;;;;;;3.72;2.67;;;;;;;6.73;nan;99095.47;5030889;28;20041;-76
2021/11/03 00:50:00;;;;;;;4.75;3.22;;;;;;;6.74;nan;99078.69;5030563;28;20029;-75
2021/11/03 00:52:25;;;;;;;5.70;3.45;;;;;;;6.74;nan;99079.50;5030194;28;20817;-75
2021/11/03 00:54:51;;;;;;;4.30;3.20;;;;;;;6.72;nan;99081.50;5030155;28;20410;-75
2021/11/03 00:57:16;;;;;;;5.30;3.75;;;;;;;6.77;nan;99078.41;5030867;28;20440;-76
2021/11/03 00:59:41;;;;;;;4.72;3.60;;;;;;;6.83;nan;99069.84;5030347;28;20057;-76
2021/11/03 01:02:07;;;;;;;4.70;3.40;;;;;;;6.84;nan;99063.63;5029623;28;20034;-76
2021/11/03 01:04:33;;;;;;;5.57;3.85;;;;;;;6.87;nan;99057.22;5030165;28;20033;-77
2021/11/03 01:06:58;;;;;;;5.45;4.15;;;;;;;6.84;nan;99058.38;5030771;28;20040;-76
2021/11/03 01:09:23;;;;;;;5.93;4.00;;;;;;;6.88;nan;99050.97;5028872;28;20506;-77
2021/11/03 01:11:49;;;;;;;5.53;4.35;;;;;;;6.88;nan;99046.53;5030175;28;20033;-76
2021/11/03 01:14:15;;;;;;;5.78;4.25;;;;;;;6.96;nan;99037.81;5029631;28;20065;-76
2021/11/03 01:16:40;;;;;;;5.32;4.10;;;;;;;6.88;nan;99037.81;5029795;28;20068;-76
2021/11/03 01:19:06;;;;;;;5.53;4.22;;;;;;;6.87;nan;99034.38;5029829;28;20056;-76
2021/11/03 01:21:33;;;;;;;5.57;4.40;;;;;;;6.88;nan;99033.38;5029898;28;20279;-76
2021/11/03 01:23:58;;;;;;;6.28;5.03;;;;;;;6.94;nan;99029.28;5030413;28;20040;-76
2021/11/03 01:26:24;;;;;;;6.55;4.82;;;;;;;6.95;nan;99031.75;5029226;28;20700;-76
2021/11/03 01:28:49;;;;;;;5.80;4.68;;;;;;;6.94;nan;99032.75;5029693;28;20037;-76
2021/11/03 01:31:15;;;;;;;5.88;4.45;;;;;;;6.90;nan;99023.53;5030166;28;20033;-76
2021/11/03 01:33:42;;;;;;;6.45;4.70;;;;;;;6.96;nan;99025.50;5029884;28;20438;-76
2021/11/03 01:36:07;;;;;;;7.35;5.10;;;;;;;6.91;nan;99025.19;5027491;28;20052;-76
2021/11/03 01:38:33;;;;;;;7.15;4.95;;;;;;;6.94;nan;99026.66;5028190;28;20033;-77
2021/11/03 01:40:58;;;;;;;5.97;4.60;;;;;;;6.95;nan;99021.22;5029055;28;20042;-76
2021/11/03 01:43:45;;;;;;;5.80;4.63;;;;;;;6.94;nan;99024.84;5029260;28;20091;-76
2021/11/03 01:46:30;;;;;;;5.72;4.30;;;;;;;6.97;nan;99021.88;5029674;28;20057;-76
2021/11/03 01:49:02;;;;;;;5.78;4.25;;;;;;;7.06;nan;99020.09;5016669;28;20084;-76
2021/11/03 01:51:34;;;;;;;5.32;4.22;;;;;;;7.08;nan;99030.41;5020765;28;20040;-77
2021/11/03 01:54:01;;;;;;;5.22;3.45;;;;;;;7.09;nan;99026.81;5029658;28;20059;-76
2021/11/03 01:56:27;;;;;;;5.00;4.07;;;;;;;7.15;nan;99024.34;5027482;28;20658;-76
2021/11/03 01:58:57;;;;;;;5.60;4.07;;;;;;;7.17;nan;99022.34;5029215;28;20041;-76
2021/11/03 02:01:22;;;;;;;5.45;3.85;;;;;;;7.22;nan;99016.59;5029256;28;20033;-76
2021/11/03 02:03:49;;;;;;;9.60;4.43;;;;;;;7.17;nan;99006.56;5029559;28;20036;-76
2021/11/03 02:06:18;;;;;;;6.20;3.75;;;;;;;7.26;nan;99014.47;5028221;28;20029;-76
2021/11/03 02:08:45;;;;;;;6.65;4.40;;;;;;;7.25;nan;99004.94;5028975;28;20032;-76
2021/11/03 02:11:12;;;;;;;5.38;3.88;;;;;;;7.31;nan;99005.06;5029406;28;20441;-76
2021/11/03 02:13:39;;;;;;;4.82;3.67;;;;;;;7.36;nan;99009.81;5028167;28;20036;-76
2021/11/03 02:16:08;;;;;;;4.30;3.63;;;;;;;7.30;nan;99003.44;5014402;28;20133;-76
2021/11/03 02:18:34;;;;;;;4.60;3.30;;;;;;;7.27;nan;99003.78;5029275;28;20036;-77
2021/11/03 02:21:00;;;;;;;4.65;3.10;;;;;;;7.20;nan;99001.00;5043288;28;20383;-76
2021/11/03 02:23:29;;;;;;;4.97;3.75;;;;;;;7.18;nan;99002.16;5029314;28;20033;-76
2021/11/03 02:26:11;;;;;;;4.78;3.38;;;;;;;7.10;nan;99010.84;5029013;28;20129;-76
2021/11/03 02:28:38;;;;;;;5.47;3.55;;;;;;;7.10;nan;99015.31;5027917;28;20033;-77
2021/11/03 02:31:04;;;;;;;6.20;3.85;;;;;;;7.10;nan;99008.22;5028915;28;20040;-76
2021/11/03 02:33:31;;;;;;;4.72;3.53;;;;;;;7.07;nan;99005.94;5027934;28;20029;-76
2021/11/03 02:36:03;;;;;;;4.32;3.25;;;;;;;7.08;nan;99006.75;5028148;28;20045;-76
2021/11/03 02:38:41;;;;;;;5.53;3.90;;;;;;;7.07;nan;99010.38;5028948;28;20091;-77
2021/11/03 02:41:13;;;;;;;3.70;3.03;;;;;;;7.10;nan;99002.16;5029117;28;20025;-77
2021/11/03 02:43:41;;;;;;;5.78;2.97;;;;;;;7.10;nan;99000.34;5029235;28;20572;-76
2021/11/03 02:46:06;;;;;;;4.07;3.30;;;;;;;7.11;nan;99007.25;5026692;28;20037;-77
2021/11/03 02:48:33;;;;;;;4.13;3.20;;;;;;;7.06;nan;99001.69;5028316;28;20424;-77
2021/11/03 02:51:03;;;;;;;4.22;3.13;;;;;;;7.06;nan;99004.31;5028469;28;20470;-77
2021/11/03 02:53:30;;;;;;;6.40;3.40;;;;;;;7.06;nan;98996.44;5028946;28;20072;-77
2021/11/03 02:55:56;;;;;;;4.40;3.25;;;;;;;7.07;nan;99002.50;5027854;28;20064;-77
2021/11/03 02:58:21;;;;;;;4.43;3.20;;;;;;;7.11;nan;99002.00;5028656;28;20038;-77
2021/11/03 03:00:48;;;;;;;4.97;3.42;;;;;;;7.20;nan;98995.75;5028722;28;20116;-77
2021/11/03 03:03:13;;;;;;;5.25;3.15;;;;;;;7.19;nan;98998.53;5028300;28;20544;-77
2021/11/03 03:05:40;;;;;;;3.90;3.17;;;;;;;7.20;nan;99005.44;5028395;28;20041;-77
2021/11/03 03:08:05;;;;;;;5.78;3.63;;;;;;;7.24;nan;99006.72;5027846;28;20025;-77
2021/11/03 03:10:31;;;;;;;6.97;4.13;;;;;;;7.26;nan;99010.03;5027518;28;20057;-77
2021/11/03 03:12:56;;;;;;;5.57;3.33;;;;;;;7.19;nan;99001.97;5028722;28;20454;-76
2021/11/03 03:15:22;;;;;;;4.53;3.33;;;;;;;7.21;nan;99002.63;5028171;28;20033;-77
2021/11/03 03:17:47;;;;;;;4.13;3.30;;;;;;;7.23;nan;99010.38;5028903;28;20034;-77
2021/11/03 03:20:12;;;;;;;4.03;2.88;;;;;;;7.22;nan;99009.53;5028380;28;20137;-77
2021/11/03 03:22:38;;;;;;;5.03;3.28;;;;;;;7.21;nan;99002.63;5032349;28;20083;-77
2021/11/03 03:25:05;;;;;;;4.90;3.70;;;;;;;7.14;nan;99000.84;5032013;28;20120;-77
2021/11/03 03:27:30;;;;;;;4.10;3.25;;;;;;;7.14;nan;99000.84;5031901;28;20057;-76
2021/11/03 03:29:55;;;;;;;4.75;3.30;;;;;;;7.13;nan;99001.84;5032506;28;20574;-77
2021/11/03 03:32:23;;;;;;;4.05;3.00;;;;;;;7.10;nan;98997.72;5031466;28;20410;-77
2021/11/03 03:34:48;;;;;;;3.38;2.75;;;;;;;7.14;nan;98998.22;5032121;28;20030;-76
2021/11/03 03:37:14;;;;;;;3.60;2.50;;;;;;;7.18;nan;99004.78;5031860;28;20044;-77
2021/11/03 03:39:39;;;;;;;4.18;2.50;;;;;;;7.18;nan;98999.53;5032300;28;20098;-76
2021/11/03 03:42:12;;;;;;;3.15;2.33;;;;;;;7.18;nan;99002.16;5031587;28;20030;-77
2021/11/03 03:44:40;;;;;;;4.30;2.50;;;;;;;7.24;nan;99006.72;5031719;28;20029;-77
2021/11/03 03:47:06;;;;;;;3.63;2.40;;;;;;;7.19;nan;98998.53;5031874;28;20057;-77
2021/11/03 03:49:32;;;;;;;2.88;2.05;;;;;;;7.25;nan;99002.31;5031717;28;20044;-76
2021/11/03 03:51:57;;;;;;;3.17;2.22;;;;;;;7.24;nan;99004.09;5031649;28;20033;-77
2021/11/03 03:54:23;;;;;;;2.63;2.10;;;;;;;7.21;nan;98996.56;5031092;28;20041;-76
2021/11/03 03:56:48;;;;;;;3.25;2.50;;;;;;;7.20;nan;98998.38;5032050;28;20459;-76
2021/11/03 03:59:15;;;;;;;4.07;2.30;;;;;;;7.19;nan;98998.53;5030678;28;20057;-76
2021/11/03 04:01:41;;;;;;;5.88;2.35;;;;;;;7.15;nan;98987.53;5030964;28;20033;-77
2021/11/03 04:04:07;;;;;;;3.58;2.00;;;;;;;7.17;nan;98990.81;5031546;28;20034;-77
2021/11/03 04:06:32;;;;;;;3.92;2.28;;;;;;;7.18;nan;98989.84;5031160;28;20026;-76
2021/11/03 04:08:58;;;;;;;5.20;2.00;;;;;;;7.15;nan;98984.06;5030392;28;20040;-77
2021/11/03 04:11:23;;;;;;;4.22;2.60;;;;;;;7.09;nan;98984.75;5031203;28;20049;-78
2021/11/03 04:13:48;;;;;;;4.03;2.45;;;;;;;7.10;nan;98983.75;5031125;28;20029;-77
2021/11/03 04:16:14;;;;;;;2.58;1.88;;;;;;;7.08;nan;98977.84;5029388;28;20042;-77
2021/11/03 04:18:39;;;;;;;3.22;1.83;;;;;;;7.05;nan;98978.19;5021561;28;20037;-77
2021/11/03 04:21:05;;;;;;;2.83;1.98;;;;;;;7.08;nan;98983.94;5031193;28;20075;-78
2021/11/03 04:23:31;;;;;;;3.35;2.30;;;;;;;7.10;nan;98978.50;5031384;28;20048;-77
2021/11/03 04:25:58;;;;;;;3.70;2.40;;;;;;;7.10;nan;98968.81;5030935;28;20063;-78
2021/11/03 04:28:23;;;;;;;3.83;2.35;;;;;;;7.09;nan;98969.81;5031034;28;20156;-77
2021/11/03 04:30:49;;;;;;;3.25;2.30;;;;;;;7.09;nan;98969.81;5031466;28;20537;-76
2021/11/03 04:33:16;;;;;;;4.90;2.40;;;;;;;7.09;nan;98972.44;5029593;28;20075;-77
2021/11/03 04:35:41;;;;;;;3.75;2.20;;;;;;;7.11;nan;98962.56;5030480;28;20507;-77
2021/11/03 04:38:06;;;;;;;3.20;2.30;;;;;;;7.06;nan;98961.44;5029406;28;20045;-77
2021/11/03 04:40:33;;;;;;;2.33;1.70;;;;;;;7.02;nan;98963.56;5030545;28;20506;-76
2021/11/03 04:42:58;;;;;;;2.95;2.00;;;;;;;6.99;nan;98948.97;5029176;28;20033;-77
2021/11/03 04:45:25;;;;;;;3.50;2.40;;;;;;;6.97;nan;98942.25;5030737;28;20121;-77
2021/11/03 04:47:51;;;;;;;3.25;2.22;;;;;;;7.00;nan;98950.59;5030968;28;20141;-77
2021/11/03 04:50:25;;;;;;;3.30;2.00;;;;;;;7.03;nan;98941.56;5029734;28;20542;-77
2021/11/03 04:52:51;;;;;;;3.63;2.35;;;;;;;7.08;nan;98944.53;5030903;28;20148;-77
2021/11/03 04:55:17;;;;;;;3.92;2.70;;;;;;;7.07;nan;98942.06;5030140;28;20124;-76
2021/11/03 04:57:42;;;;;;;4.05;1.90;;;;;;;7.03;nan;98938.91;5029814;28;20583;-77
2021/11/03 05:00:15;;;;;;;3.22;2.28;;;;;;;6.98;nan;98922.84;5028111;28;20121;-76
2021/11/03 05:02:40;;;;;;;2.72;1.95;;;;;;;7.00;nan;98920.88;5030431;28;20036;-76
2021/11/03 05:05:06;;;;;;;3.13;1.85;;;;;;;7.07;nan;98913.13;5030138;28;20033;-77
2021/11/03 05:07:31;;;;;;;2.40;1.83;;;;;;;7.11;nan;98914.44;5030116;28;20033;-77
2021/11/03 05:09:57;;;;;;;4.18;2.35;;;;;;;7.05;nan;98912.47;5030394;28;20030;-77
2021/11/03 05:12:22;;;;;;;4.22;2.20;;;;;;;7.07;nan;98906.06;5029756;28;20037;-77
2021/11/03 05:14:47;;;;;;;4.07;2.28;;;;;;;7.06;nan;98903.63;5028188;28;20045;-77
2021/11/03 05:17:13;;;;;;;3.40;2.50;;;;;;;7.02;nan;98901.31;5028844;28;20352;-77
2021/11/03 05:19:38;;;;;;;3.58;2.35;;;;;;;6.98;nan;98899.19;5030279;28;20033;-77
2021/11/03 05:22:04;;;;;;;3.63;2.13;;;;;;;7.02;nan;98893.44;5024193;28;20045;-77
2021/11/03 05:24:30;;;;;;;3.17;2.20;;;;;;;6.96;nan;98891.50;5014104;28;20208;-77
2021/11/03 05:26:55;;;;;;;3.28;2.10;;;;;;;6.95;nan;98884.59;5030255;28;20433;-77
2021/11/03 05:29:22;;;;;;;3.78;2.40;;;;;;;6.94;nan;98875.06;5028686;28;20033;-78
2021/11/03 05:31:47;;;;;;;3.28;2.22;;;;;;;6.93;nan;98876.03;5030293;28;20037;-78
2021/11/03 05:34:13;;;;;;;3.97;2.40;;;;;;;6.93;nan;98867.34;5028880;28;20580;-77
2021/11/03 05:36:39;;;;;;;4.30;2.30;;;;;;;6.92;nan;98865.72;5030265;28;20052;-77
2021/11/03 05:39:08;;;;;;;3.13;2.20;;;;;;;6.93;nan;98865.53;5023342;28;20485;-77
2021/11/03 05:41:40;;;;;;;3.00;2.22;;;;;;;6.96;nan;98862.59;5030368;28;20091;-77
2021/11/03 05:44:08;;;;;;;3.47;2.15;;;;;;;6.99;nan;98862.25;5028927;28;20403;-77
2021/11/03 05:46:39;;;;;;;2.90;2.15;;;;;;;6.94;nan;98854.06;5029898;28;20029;-77
2021/11/03 05:49:09;;;;;;;2.78;2.13;;;;;;;6.91;nan;98846.53;5032959;28;20453;-78
2021/11/03 05:51:35;;;;;;;5.15;2.30;;;;;;;7.00;nan;98853.34;5032950;28;20421;-77
2021/11/03 05:54:00;;;;;;;4.45;2.70;;;;;;;6.88;nan;98849.47;5032560;28;20029;-77
2021/11/03 05:56:25;;;;;;;3.15;2.20;;;;;;;6.87;nan;98837.34;5030704;28;20378;-78
2021/11/03 05:58:51;;;;;;;3.85;2.50;;;;;;;6.98;nan;98829.09;5029584;28;20029;-76
2021/11/03 06:01:16;;;;;;;4.57;3.65;;;;;;;6.95;nan;98829.41;5029730;28;20132;-76
2021/11/03 06:03:42;;;;;;;8.88;7.97;;;;;;;6.98;nan;98838.75;5029875;28;20037;-76
2021/11/03 06:06:10;;;;;;;6.68;5.90;;;;;;;6.99;nan;98835.97;5027747;28;20300;-76
2021/11/03 06:08:36;;;;;;;5.40;3.75;;;;;;;6.97;nan;98827.44;5029847;28;20053;-76
2021/11/03 06:11:02;;;;;;;5.13;3.70;;;;;;;6.95;nan;98818.91;5029527;28;20107;-77
2021/11/03 06:13:28;;;;;;;7.18;3.97;;;;;;;6.93;nan;98823.50;5032954;28;20041;-77
2021/11/03 06:15:53;;;;;;;7.82;4.93;;;;;;;6.95;nan;98818.91;5029158;28;20061;-77
2021/11/03 06:18:18;;;;;;;6.80;4.15;;;;;;;6.97;nan;98822.16;5027579;28;20060;-77
2021/11/03 06:20:44;;;;;;;4.68;2.80;;;;;;;6.91;nan;98822.03;5029342;28;20037;-77
2021/11/03 06:23:09;;;;;;;3.75;2.70;;;;;;;6.93;nan;98812.16;5029659;28;20117;-76
2021/11/03 06:25:35;;;;;;;3.35;2.60;;;;;;;6.95;nan;98808.38;5027959;28;20517;-76
2021/11/03 06:28:02;;;;;;;4.82;2.50;;;;;;;6.98;nan;98810.69;5028500;28;20031;-78
2021/11/03 06:30:31;;;;;;;3.05;1.80;;;;;;;7.01;nan;98801.66;5028304;28;20116;-77
2021/11/03 06:32:57;;;;;;;2.30;1.50;;;;;;;7.04;nan;98800.47;5024109;28;20095;-77
2021/11/03 06:35:24;;;;;;;3.38;1.45;;;;;;;7.11;nan;98804.06;5028938;28;20038;-77
2021/11/03 06:37:50;;;;;;;2.58;1.38;;;;;;;7.07;nan;98800.13;5028971;28;20045;-77
2021/11/03 06:40:19;;;;;;;2.85;1.52;;;;;;;7.09;nan;98803.41;5028454;28;20088;-77
2021/11/03 06:42:45;;;;;;;2.58;1.23;;;;;;;7.07;nan;98797.50;5028298;28;20053;-76
2021/11/03 06:45:14;;;;;;;3.28;1.30;;;;;;;7.14;nan;98795.81;5027409;28;20442;-77
2021/11/03 06:47:39;;;;;;;2.20;1.30;;;;;;;7.15;nan;98798.28;5027263;28;20431;-76
2021/11/03 06:50:07;;;;;;;2.00;0.93;;;;;;;7.25;nan;98798.06;5020267;28;20133;-78
2021/11/03 06:52:33;;;;;;;1.85;1.20;;;;;;;7.25;nan;98805.97;5008258;28;20029;-77
2021/11/03 06:54:58;;;;;;;2.10;1.20;;;;;;;7.36;nan;98791.59;5014664;28;20034;-76
2021/11/03 06:57:24;;;;;;;6.05;1.40;;;;;;;7.40;nan;98798.16;5032800;28;20033;-78
2021/11/03 06:59:50;;;;;;;2.03;1.00;;;;;;;7.47;nan;98785.94;5033572;28;20072;-77
2021/11/03 07:02:17;;;;;;;1.50;1.00;;;;;;;7.53;nan;98780.00;5031558;28;20040;-77
2021/11/03 07:04:42;;;;;;;1.52;1.00;;;;;;;7.49;nan;98789.22;5034098;28;20018;-78
2021/11/03 07:07:09;;;;;;;1.40;0.90;;;;;;;7.56;nan;98798.03;5033279;28;20029;-77
2021/11/03 07:09:34;;;;;;;1.63;0.90;;;;;;;7.56;nan;98797.22;5034040;28;20432;-77
2021/11/03 07:11:59;;;;;;;4.30;1.42;;;;;;;7.56;nan;98799.84;5033201;28;20117;-77
2021/11/03 07:14:24;;;;;;;2.15;0.98;;;;;;;7.61;nan;98808.84;5024556;28;20076;-78
2021/11/03 07:16:51;;;;;;;1.75;1.10;;;;;;;7.51;nan;98810.06;5021436;28;20064;-78
2021/11/03 07:19:16;;;;;;;1.80;1.00;;;;;;;7.49;nan;98818.13;5033343;28;20033;-79
2021/11/03 07:21:42;;;;;;;2.53;0.95;;;;;;;7.44;nan;98833.63;5033369;28;20029;-77
2021/11/03 07:24:07;;;;;;;1.92;0.85;;;;;;;7.51;nan;98831.09;5032842;28;20125;-77
2021/11/03 07:26:32;;;;;;;1.35;1.00;;;;;;;7.43;nan;98816.19;5033302;28;20033;-77
2021/11/03 07:28:58;;;;;;;1.77;1.02;;;;;;;7.50;nan;98825.03;5033234;28;20395;-78
2021/11/03 07:31:23;;;;;;;1.95;0.90;;;;;;;7.48;nan;98826.19;5032983;28;20041;-77
2021/11/03 07:33:49;;;;;;;1.35;0.90;;;;;;;7.50;nan;98832.09;5033779;28;20026;-77
2021/11/03 07:36:19;;;;;;;1.80;0.90;;;;;;;7.51;nan;98828.47;5030672;28;20439;-77
2021/11/03 07:38:44;;;;;;;1.67;0.90;;;;;;;7.54;nan;98831.59;5031892;28;20033;-77
2021/11/03 07:41:10;;;;;;;1.60;0.93;;;;;;;7.52;nan;98835.38;5031348;28;20156;-78
2021/11/03 07:43:36;;;;;;;2.05;0.90;;;;;;;7.52;nan;98830.13;5033209;28;20143;-78
2021/11/03 07:46:02;;;;;;;1.98;0.90;;;;;;;7.58;nan;98838.16;5031174;28;20115;-78
2021/11/03 07:48:28;;;;;;;1.33;0.80;;;;;;;7.51;nan;98841.63;5032080;28;20040;-77
2021/11/03 07:51:01;;;;;;;3.38;1.38;;;;;;;7.57;nan;98843.56;5030433;28;20033;-76
2021/11/03 07:53:27;;;;;;;2.08;1.00;;;;;;;7.53;nan;98858.06;5031933;28;20043;-78
2021/11/03 07:55:58;;;;;;;1.98;1.08;;;;;;;7.60;nan;98861.63;5032026;28;20092;-77
2021/11/03 07:58:25;;;;;;;2.05;1.23;;;;;;;7.62;nan;98872.78;5032284;28;20511;-78
2021/11/03 08:00:52;;;;;;;3.15;1.20;;;;;;;7.60;nan;98869.50;5031998;28;20034;-77
2021/11/03 08:03:18;;;;;;;2.00;0.90;;;;;;;7.62;nan;98868.34;5030981;28;20116;-77
2021/11/03 08:05:43;;;;;;;1.10;0.80;;;;;;;7.63;nan;98880.53;5033051;28;20117;-78
2021/11/03 08:08:13;;;;;;;1.35;0.90;;;;;;;7.66;nan;98876.72;5017109;28;20168;-79
2021/11/03 08:10:43;;;;;;;2.35;0.90;;;;;;;7.68;nan;98876.56;5029136;28;20064;-78
2021/11/03 08:13:13;;;;;;;2.25;1.10;;;;;;;7.70;nan;98872.75;5031007;28;20040;-78
2021/11/03 08:15:39;;;;;;;1.95;1.13;;;;;;;7.69;nan;98865.03;5032365;28;20041;-77
2021/11/03 08:18:05;;;;;;;2.42;1.20;;;;;;;7.66;nan;98853.06;5030815;28;20567;-77
2021/11/03 08:20:31;;;;;;;2.05;1.08;;;;;;;7.75;nan;98861.72;5030479;28;20061;-78
2021/11/03 08:22:59;;;;;;;6.18;1.38;;;;;;;7.75;nan;98865.16;5031666;28;20116;-78
2021/11/03 08:25:27;;;;;;;1.92;1.15;;;;;;;7.72;nan;98849.69;5031912;28;20041;-77
2021/11/03 08:27:53;;;;;;;2.03;1.20;;;;;;;7.73;nan;98856.63;5032461;28;20038;-78
2021/11/03 08:30:19;;;;;;;2.05;1.10;;;;;;;7.77;nan;98850.03;5031255;28;20513;-77
2021/11/03 08:32:51;;;;;;;4.07;1.30;;;;;;;7.78;nan;98856.91;5030873;28;20057;-77
2021/11/03 08:35:18;;;;;;;1.73;0.95;;;;;;;7.77;nan;98844.75;5031521;28;20049;-78
2021/11/03 08:37:46;;;;;;;3.53;0.88;;;;;;;7.83;nan;98843.22;5031790;28;20251;-77
2021/11/03 08:40:14;;;;;;;1.25;0.77;;;;;;;7.82;nan;98837.16;5030817;28;20115;-77
2021/11/03 08:42:40;;;;;;;1.90;0.90;;;;;;;7.89;nan;98832.00;5027385;28;20368;-78
2021/11/03 08:45:06;;;;;;;1.45;0.90;;;;;;;7.96;nan;98832.09;5011007;28;20250;-77
2021/11/03 08:47:33;;;;;;;3.47;1.10;;;;;;;7.98;nan;98838.84;5028697;28;20278;-77
2021/11/03 08:49:58;;;;;;;1.70;0.90;;;;;;;8.00;nan;98844.75;5018507;28;20506;-78
2021/11/03 08:52:24;;;;;;;1.73;0.90;;;;;;;8.05;nan;98850.28;5031065;28;20345;-77
2021/11/03 08:54:49;;;;;;;1.77;0.90;;;;;;;8.07;nan;98850.13;5030876;28;20421;-77
2021/11/03 08:57:17;;;;;;;2.15;0.90;;;;;;;7.98;nan;98845.91;5031211;28;20487;-77
2021/11/03 08:59:43;;;;;;;2.85;1.05;;;;;;;8.04;nan;98853.13;5030489;28;20033;-78
2021/11/03 09:02:08;;;;;;;2.28;0.90;;;;;;;8.05;nan;98852.91;5028452;28;20617;-78
2021/11/03 09:04:35;;;;;;;2.15;0.80;;;;;;;8.11;nan;98856.69;5030693;28;20049;-78
2021/11/03 09:07:00;;;;;;;2.55;0.85;;;;;;;8.15;nan;98859.75;5031255;28;20095;-77
2021/11/03 09:09:26;;;;;;;1.42;0.85;;;;;;;8.07;nan;98858.84;5030280;28;20501;-77
2021/11/03 09:11:52;;;;;;;1.50;0.82;;;;;;;8.11;nan;98859.31;5029169;28;20025;-78
2021/11/03 09:14:21;;;;;;;1.15;0.73;;;;;;;8.08;nan;98854.41;5028030;28;20040;-78
2021/11/03 09:16:48;;;;;;;1.73;0.95;;;;;;;8.11;nan;98855.88;5030216;28;20148;-78
2021/11/03 09:19:14;;;;;;;3.05;0.93;;;;;;;8.09;nan;98867.38;5027176;28;20115;-77
2021/11/03 09:21:39;;;;;;;1.65;0.90;;;;;;;8.02;nan;98861.19;5029763;28;20084;-77
2021/11/03 09:24:05;;;;;;;1.80;0.90;;;;;;;8.01;nan;98854.28;5029824;28;20049;-78
2021/11/03 09:26:30;;;;;;;1.85;0.85;;;;;;;8.07;nan;98850.94;5036119;28;20898;-78
2021/11/03 09:28:59;;;;;;;2.08;0.80;;;;;;;8.11;nan;98847.97;5030164;28;20099;-77
2021/11/03 09:31:24;;;;;;;1.58;0.80;;;;;;;8.07;nan;98848.31;5031024;28;20136;-77
2021/11/03 09:33:50;;;;;;;0.98;0.80;;;;;;;8.07;nan;98850.94;5030572;28;20087;-78
2021/11/03 09:36:19;;;;;;;1.95;0.85;;;;;;;8.06;nan;98848.50;5030220;28;20025;-78
2021/11/03 09:38:46;;;;;;;1.75;0.70;;;;;;;8.17;nan;98860.41;5030217;28;20044;-78
2021/11/03 09:41:11;;;;;;;1.45;0.90;;;;;;;8.17;nan;98865.66;5034316;28;20520;-77
2021/11/03 09:43:47;;;;;;;1.70;0.90;;;;;;;8.19;nan;98864.50;5030830;28;20057;-77
2021/11/03 09:46:42;;;;;;;2.67;0.85;;;;;;;8.24;nan;98867.41;5029521;28;20287;-77
2021/11/03 09:49:23;;;;;;;2.50;0.80;;;;;;;8.23;nan;98870.25;5032839;28;20426;-78
2021/11/03 09:52:14;;;;;;;2.55;0.90;;;;;;;8.21;nan;98873.03;5033995;28;20091;-77
2021/11/03 09:54:43;;;;;;;1.50;0.90;;;;;;;8.25;nan;98874.34;5028276;28;20048;-78
2021/11/03 09:57:31;;;;;;;3.10;0.80;;;;;;;8.32;nan;98876.25;5029532;28;20057;-77
2021/11/03 10:00:29;;;;;;;2.97;1.13;;;;;;;8.36;nan;98877.53;5030619;28;20045;-77
2021/11/03 10:03:22;;;;;;;2.08;0.90;;;;;;;8.41;nan;98886.56;5028142;28;20052;-78
2021/11/03 10:06:03;;;;;;;3.00;1.00;;;;;;;8.39;nan;98879.81;5033722;28;20087;-77
2021/11/03 10:08:31;;;;;;;2.63;1.20;;;;;;;8.34;nan;98892.69;5028771;28;20041;-78
2021/11/03 10:11:03;;;;;;;1.95;1.00;;;;;;;8.36;nan;98893.34;5029552;28;20148;-77
2021/11/03 10:13:35;;;;;;;2.10;1.20;;;;;;;8.32;nan;98894.69;5030292;28;20406;-77
2021/11/03 10:16:03;;;;;;;1.58;0.95;;;;;;;8.34;nan;98896.13;5027664;28;20048;-78
2021/11/03 10:18:35;;;;;;;2.08;1.08;;;;;;;8.42;nan;98893.47;5028885;28;20034;-77
2021/11/03 10:21:25;;;;;;;2.40;0.90;;;;;;;8.58;nan;98899.59;5043421;28;20033;-78
2021/11/03 10:24:11;;;;;;;0.95;0.70;;;;;;;8.76;nan;98902.72;5025988;28;20041;-78
2021/11/03 10:26:49;;;;;;;1.00;0.70;;;;;;;8.89;nan;98900.28;5018073;28;20033;-78
2021/11/03 10:29:19;;;;;;;0.68;0.60;;;;;;;8.98;nan;98901.00;5030237;28;20045;-77
2021/11/03 10:31:55;;;;;;;1.45;1.00;;;;;;;9.12;nan;98894.09;5028719;28;20044;-77
2021/11/03 10:34:22;;;;;;;1.85;0.80;;;;;;;9.23;nan;98900.75;5029258;28;20053;-79
2021/11/03 10:37:01;;;;;;;1.17;0.70;;;;;;;9.38;nan;98909.44;5028524;28;20053;-77
2021/11/03 10:39:28;;;;;;;1.27;0.90;;;;;;;9.46;nan;98903.25;5027295;28;20037;-78
2021/11/03 10:42:02;;;;;;;1.60;0.80;;;;;;;9.48;nan;98906.50;5027651;28;20479;-77
2021/11/03 10:44:34;;;;;;;2.42;1.40;;;;;;;9.46;nan;98903.25;5027120;28;20124;-78
2021/11/03 10:47:10;;;;;;;2.78;1.40;;;;;;;9.46;nan;98897.97;5025512;28;20030;-78
2021/11/03 10:49:50;;;;;;;2.00;1.00;;;;;;;9.50;nan;98900.06;5018000;28;20069;-79
2021/11/03 10:52:16;;;;;;;1.83;0.98;;;;;;;9.60;nan;98891.03;5027512;28;20041;-76
2021/11/03 10:54:49;;;;;;;3.45;1.40;;;;;;;9.61;nan;98892.69;5028625;28;20041;-78
2021/11/03 10:57:25;;;;;;;2.20;1.35;;;;;;;9.62;nan;98886.38;5028588;28;20046;-79
2021/11/03 10:59:59;;;;;;;2.28;1.35;;;;;;;9.66;nan;98893.75;5028819;28;20057;-77
2021/11/03 11:02:28;;;;;;;2.90;1.50;;;;;;;9.76;nan;98896.09;5024168;28;20037;-78
2021/11/03 11:04:56;;;;;;;3.88;1.70;;;;;;;9.86;nan;98888.66;5029507;28;20130;-78
2021/11/03 11:07:48;;;;;;;4.85;2.30;;;;;;;9.73;nan;98891.19;5027056;28;20034;-77
2021/11/03 11:10:28;;;;;;;2.80;1.80;;;;;;;9.72;nan;98886.91;5020731;28;20076;-78
2021/11/03 11:12:56;;;;;;;3.90;2.13;;;;;;;9.84;nan;98889.88;5027563;28;20048;-78
2021/11/03 11:15:35;;;;;;;3.13;1.50;;;;;;;9.91;nan;98880.19;5033409;28;20083;-77
2021/11/03 11:18:13;;;;;;;3.22;1.70;;;;;;;9.98;nan;98892.44;5034522;28;21081;-78
2021/11/03 11:20:50;;;;;;;3.00;1.63;;;;;;;9.98;nan;98883.72;5034764;28;20037;-79
2021/11/03 11:23:22;;;;;;;2.60;1.75;;;;;;;9.91;nan;98890.75;5032293;28;20136;-78
2021/11/03 11:26:07;;;;;;;4.18;2.08;;;;;;;9.89;nan;98893.59;5029678;28;20036;-79
2021/11/03 11:28:51;;;;;;;3.88;1.80;;;;;;;9.90;nan;98895.22;5017230;28;20033;-77
2021/11/03 11:31:35;;;;;;;4.70;2.65;;;;;;;9.82;nan;98892.72;5028297;28;20033;-77
2021/11/03 11:34:03;;;;;;;5.70;2.35;;;;;;;9.83;nan;98904.09;5027923;28;20455;-78
2021/11/03 11:36:36;;;;;;;2.95;1.95;;;;;;;9.84;nan;98898.59;5026309;28;20122;-78
2021/11/03 11:39:30;;;;;;;3.35;2.25;;;;;;;9.56;nan;98904.59;5027782;28;20036;-77
2021/11/03 11:41:58;;;;;;;3.60;2.05;;;;;;;9.63;nan;98907.31;5025377;28;20124;-78
2021/11/03 11:44:31;;;;;;;4.22;2.15;;;;;;;9.63;nan;98904.69;5024623;28;20037;-78
2021/11/03 11:47:03;;;;;;;4.30;2.25;;;;;;;9.60;nan;98905.03;5031383;28;20061;-77
2021/11/03 11:49:43;;;;;;;4.10;2.10;;;;;;;9.60;nan;98906.88;5031081;28;20065;-77
2021/11/03 11:52:24;;;;;;;5.10;2.20;;;;;;;9.60;nan;98907.66;5029279;28;20045;-78
2021/11/03 11:55:11;;;;;;;4.95;2.25;;;;;;;9.66;nan;98916.69;5029095;28;20195;-79
2021/11/03 11:57:38;;;;;;;5.32;3.08;;;;;;;9.66;nan;98906.13;5045184;28;20063;-78
2021/11/03 12:00:07;;;;;;;5.15;2.50;;;;;;;9.52;nan;98913.06;5032500;28;20300;-79
2021/11/03 12:02:34;;;;;;;;;;;;;;;9.45;nan;98914.81;5030144;28;20041;-78
2021/11/03 12:05:21;;;;;;;4.05;2.50;;;;;;;9.35;nan;98907.19;5030601;28;20002;-78